sensor_id;sensor_type;location;lat;lon;timestamp;temperature;humidity
13982;DHT22;7065;50.880;5.502;2022-09-17T00:02:00;9.30;99.90
13982;DHT22;7065;50.880;5.502;2022-09-17T00:04:31;9.40;99.90
13982;DHT22;7065;50.880;5.502;2022-09-17T00:06:57;9.40;99.90
13982;DHT22;7065;50.880;5.502;2022-09-17T00:09:23;9.40;99.90
13982;DHT22;7065;50.880;5.502;2022-09-17T00:11:49;9.40;99.90
13982;DHT22;7065;50.880;5.502;2022-09-17T00:14:16;9.40;99.90
13982;DHT22;7065;50.880;5.502;2022-09-17T00:16:46;9.40;99.90
13982;DHT22;7065;50.880;5.502;2022-09-17T00:19:22;9.40;99.90
13982;DHT22;7065;50.880;5.502;2022-09-17T00:21:48;9.40;99.90
13982;DHT22;7065;50.880;5.502;2022-09-17T00:24:15;9.40;99.90
13982;DHT22;7065;50.880;5.502;2022-09-17T00:26:42;9.40;99.90
13982;DHT22;7065;50.880;5.502;2022-09-17T00:29:08;9.40;99.90
13982;DHT22;7065;50.880;5.502;2022-09-17T00:31:34;9.40;99.90
13982;DHT22;7065;50.880;5.502;2022-09-17T00:34:01;9.40;99.90
13982;DHT22;7065;50.880;5.502;2022-09-17T00:36:28;9.40;99.90
13982;DHT22;7065;50.880;5.502;2022-09-17T00:38:57;9.40;99.90
13982;DHT22;7065;50.880;5.502;2022-09-17T00:41:25;9.50;99.90
13982;DHT22;7065;50.880;5.502;2022-09-17T00:43:54;9.40;99.90
13982;DHT22;7065;50.880;5.502;2022-09-17T00:46:35;9.50;99.90
13982;DHT22;7065;50.880;5.502;2022-09-17T00:49:11;9.40;99.90
13982;DHT22;7065;50.880;5.502;2022-09-17T00:51:42;9.50;99.90
13982;DHT22;7065;50.880;5.502;2022-09-17T00:54:10;9.40;99.90
13982;DHT22;7065;50.880;5.502;2022-09-17T00:56:38;9.50;99.90
13982;DHT22;7065;50.880;5.502;2022-09-17T00:59:05;9.50;99.90
13982;DHT22;7065;50.880;5.502;2022-09-17T01:01:32;9.40;99.90
13982;DHT22;7065;50.880;5.502;2022-09-17T01:03:58;9.40;99.90
13982;DHT22;7065;50.880;5.502;2022-09-17T01:06:34;9.40;99.90
13982;DHT22;7065;50.880;5.502;2022-09-17T01:20:40;9.50;99.90
13982;DHT22;7065;50.880;5.502;2022-09-17T01:32:14;9.50;99.90
13982;DHT22;7065;50.880;5.502;2022-09-17T01:35:07;9.60;99.90
13982;DHT22;7065;50.880;5.502;2022-09-17T01:40:27;9.60;99.90
13982;DHT22;7065;50.880;5.502;2022-09-17T01:43:11;9.60;99.90
13982;DHT22;7065;50.880;5.502;2022-09-17T01:45:46;9.60;99.90
13982;DHT22;7065;50.880;5.502;2022-09-17T01:48:26;9.60;99.90
13982;DHT22;7065;50.880;5.502;2022-09-17T01:50:57;9.60;99.90
13982;DHT22;7065;50.880;5.502;2022-09-17T01:53:30;9.60;99.90
13982;DHT22;7065;50.880;5.502;2022-09-17T01:55:57;9.60;99.90
13982;DHT22;7065;50.880;5.502;2022-09-17T01:58:33;9.60;99.90
13982;DHT22;7065;50.880;5.502;2022-09-17T02:01:03;9.70;99.90
13982;DHT22;7065;50.880;5.502;2022-09-17T02:03:39;9.70;99.90
13982;DHT22;7065;50.880;5.502;2022-09-17T02:06:16;9.70;99.90
13982;DHT22;7065;50.880;5.502;2022-09-17T02:08:50;9.70;99.90
13982;DHT22;7065;50.880;5.502;2022-09-17T02:11:17;9.70;99.90
13982;DHT22;7065;50.880;5.502;2022-09-17T02:13:49;9.70;99.90
13982;DHT22;7065;50.880;5.502;2022-09-17T02:16:28;9.70;99.90
13982;DHT22;7065;50.880;5.502;2022-09-17T02:19:10;9.80;99.90
13982;DHT22;7065;50.880;5.502;2022-09-17T02:24:51;9.80;99.90
13982;DHT22;7065;50.880;5.502;2022-09-17T02:30:07;9.80;99.90
13982;DHT22;7065;50.880;5.502;2022-09-17T02:32:33;9.90;99.90
13982;DHT22;7065;50.880;5.502;2022-09-17T02:34:59;9.90;99.90
13982;DHT22;7065;50.880;5.502;2022-09-17T02:37:25;9.90;99.90
13982;DHT22;7065;50.880;5.502;2022-09-17T02:39:52;9.90;99.90
13982;DHT22;7065;50.880;5.502;2022-09-17T02:46:11;9.90;99.90
13982;DHT22;7065;50.880;5.502;2022-09-17T02:48:33;9.90;99.90
13982;DHT22;7065;50.880;5.502;2022-09-17T02:59:09;9.90;99.90
13982;DHT22;7065;50.880;5.502;2022-09-17T03:01:42;9.90;99.90
13982;DHT22;7065;50.880;5.502;2022-09-17T03:04:12;9.90;99.90
13982;DHT22;7065;50.880;5.502;2022-09-17T03:06:41;9.90;99.90
13982;DHT22;7065;50.880;5.502;2022-09-17T03:09:07;9.90;99.90
13982;DHT22;7065;50.880;5.502;2022-09-17T03:11:32;9.90;99.90
13982;DHT22;7065;50.880;5.502;2022-09-17T03:13:59;9.90;99.90
13982;DHT22;7065;50.880;5.502;2022-09-17T03:16:24;9.90;99.90
13982;DHT22;7065;50.880;5.502;2022-09-17T03:18:50;9.90;99.90
13982;DHT22;7065;50.880;5.502;2022-09-17T03:21:15;9.90;99.90
13982;DHT22;7065;50.880;5.502;2022-09-17T03:23:42;9.90;99.90
13982;DHT22;7065;50.880;5.502;2022-09-17T03:26:08;9.90;99.90
13982;DHT22;7065;50.880;5.502;2022-09-17T03:28:33;9.90;99.90
13982;DHT22;7065;50.880;5.502;2022-09-17T03:30:59;9.90;99.90
13982;DHT22;7065;50.880;5.502;2022-09-17T03:33:25;9.90;99.90
13982;DHT22;7065;50.880;5.502;2022-09-17T03:35:52;9.90;99.90
13982;DHT22;7065;50.880;5.502;2022-09-17T03:38:18;9.90;99.90
13982;DHT22;7065;50.880;5.502;2022-09-17T03:40:43;9.90;99.90
13982;DHT22;7065;50.880;5.502;2022-09-17T03:43:09;9.90;99.90
13982;DHT22;7065;50.880;5.502;2022-09-17T03:45:35;9.90;99.90
13982;DHT22;7065;50.880;5.502;2022-09-17T03:48:01;9.90;99.90
13982;DHT22;7065;50.880;5.502;2022-09-17T03:50:28;9.90;99.90
13982;DHT22;7065;50.880;5.502;2022-09-17T03:52:53;9.90;99.90
13982;DHT22;7065;50.880;5.502;2022-09-17T03:55:19;9.90;99.90
13982;DHT22;7065;50.880;5.502;2022-09-17T03:57:45;9.90;99.90
13982;DHT22;7065;50.880;5.502;2022-09-17T04:00:11;10.00;99.90
13982;DHT22;7065;50.880;5.502;2022-09-17T04:02:38;9.90;99.90
13982;DHT22;7065;50.880;5.502;2022-09-17T04:05:04;10.00;99.90
13982;DHT22;7065;50.880;5.502;2022-09-17T04:07:30;9.90;99.90
13982;DHT22;7065;50.880;5.502;2022-09-17T04:09:55;9.90;99.90
13982;DHT22;7065;50.880;5.502;2022-09-17T04:12:21;9.90;99.90
13982;DHT22;7065;50.880;5.502;2022-09-17T04:14:48;9.80;99.90
13982;DHT22;7065;50.880;5.502;2022-09-17T04:17:14;9.80;99.90
13982;DHT22;7065;50.880;5.502;2022-09-17T04:19:43;9.80;99.90
13982;DHT22;7065;50.880;5.502;2022-09-17T04:22:09;9.80;99.90
13982;DHT22;7065;50.880;5.502;2022-09-17T04:24:34;9.70;99.90
13982;DHT22;7065;50.880;5.502;2022-09-17T04:27:00;9.70;99.90
13982;DHT22;7065;50.880;5.502;2022-09-17T04:29:26;9.60;99.90
13982;DHT22;7065;50.880;5.502;2022-09-17T04:31:52;9.60;99.90
13982;DHT22;7065;50.880;5.502;2022-09-17T04:34:18;9.60;99.90
13982;DHT22;7065;50.880;5.502;2022-09-17T04:36:44;9.60;99.90
13982;DHT22;7065;50.880;5.502;2022-09-17T04:39:10;9.50;99.90
13982;DHT22;7065;50.880;5.502;2022-09-17T04:41:36;9.50;99.90
13982;DHT22;7065;50.880;5.502;2022-09-17T04:44:02;9.50;99.90
13982;DHT22;7065;50.880;5.502;2022-09-17T04:46:27;9.50;99.90
13982;DHT22;7065;50.880;5.502;2022-09-17T04:48:53;9.60;99.90
13982;DHT22;7065;50.880;5.502;2022-09-17T04:51:19;9.60;99.90
13982;DHT22;7065;50.880;5.502;2022-09-17T04:53:45;9.60;99.90
13982;DHT22;7065;50.880;5.502;2022-09-17T04:56:11;9.60;99.90
13982;DHT22;7065;50.880;5.502;2022-09-17T04:58:36;9.60;99.90
13982;DHT22;7065;50.880;5.502;2022-09-17T05:01:02;9.60;99.90
13982;DHT22;7065;50.880;5.502;2022-09-17T05:03:28;9.60;99.90
13982;DHT22;7065;50.880;5.502;2022-09-17T05:05:54;9.60;99.90
13982;DHT22;7065;50.880;5.502;2022-09-17T05:08:20;9.50;99.90
13982;DHT22;7065;50.880;5.502;2022-09-17T05:10:49;9.50;99.90
13982;DHT22;7065;50.880;5.502;2022-09-17T05:13:16;9.50;99.90
13982;DHT22;7065;50.880;5.502;2022-09-17T05:15:42;9.50;99.90
13982;DHT22;7065;50.880;5.502;2022-09-17T05:18:07;9.40;99.90
13982;DHT22;7065;50.880;5.502;2022-09-17T05:20:33;9.50;99.90
13982;DHT22;7065;50.880;5.502;2022-09-17T05:22:58;9.40;99.90
13982;DHT22;7065;50.880;5.502;2022-09-17T05:25:25;9.40;99.90
13982;DHT22;7065;50.880;5.502;2022-09-17T05:27:52;9.50;99.90
13982;DHT22;7065;50.880;5.502;2022-09-17T05:30:18;9.50;99.90
13982;DHT22;7065;50.880;5.502;2022-09-17T05:32:43;9.60;99.90
13982;DHT22;7065;50.880;5.502;2022-09-17T05:35:09;9.60;99.90
13982;DHT22;7065;50.880;5.502;2022-09-17T05:37:36;9.60;99.90
13982;DHT22;7065;50.880;5.502;2022-09-17T05:40:06;9.60;99.90
13982;DHT22;7065;50.880;5.502;2022-09-17T05:42:32;9.60;99.90
13982;DHT22;7065;50.880;5.502;2022-09-17T05:44:58;9.60;99.90
13982;DHT22;7065;50.880;5.502;2022-09-17T05:47:24;9.60;99.90
13982;DHT22;7065;50.880;5.502;2022-09-17T05:49:50;9.60;99.90
13982;DHT22;7065;50.880;5.502;2022-09-17T05:52:16;9.60;99.90
13982;DHT22;7065;50.880;5.502;2022-09-17T05:54:41;9.50;99.90
13982;DHT22;7065;50.880;5.502;2022-09-17T05:57:07;9.50;99.90
13982;DHT22;7065;50.880;5.502;2022-09-17T05:59:33;9.50;99.90
13982;DHT22;7065;50.880;5.502;2022-09-17T06:02:00;9.50;99.90
13982;DHT22;7065;50.880;5.502;2022-09-17T06:04:26;9.50;99.90
13982;DHT22;7065;50.880;5.502;2022-09-17T06:06:51;9.50;99.90
13982;DHT22;7065;50.880;5.502;2022-09-17T06:09:17;9.50;99.90
13982;DHT22;7065;50.880;5.502;2022-09-17T06:11:42;9.60;99.90
13982;DHT22;7065;50.880;5.502;2022-09-17T06:14:09;9.60;99.90
13982;DHT22;7065;50.880;5.502;2022-09-17T06:16:35;9.60;99.90
13982;DHT22;7065;50.880;5.502;2022-09-17T06:19:00;9.60;99.90
13982;DHT22;7065;50.880;5.502;2022-09-17T06:21:27;9.60;99.90
13982;DHT22;7065;50.880;5.502;2022-09-17T06:23:53;9.70;99.90
13982;DHT22;7065;50.880;5.502;2022-09-17T06:26:19;9.80;99.90
13982;DHT22;7065;50.880;5.502;2022-09-17T06:28:46;9.90;99.90
13982;DHT22;7065;50.880;5.502;2022-09-17T06:31:12;9.90;99.90
13982;DHT22;7065;50.880;5.502;2022-09-17T06:33:38;9.90;99.90
13982;DHT22;7065;50.880;5.502;2022-09-17T06:36:06;10.00;99.90
13982;DHT22;7065;50.880;5.502;2022-09-17T06:38:34;10.00;99.90
13982;DHT22;7065;50.880;5.502;2022-09-17T06:41:01;10.00;99.90
13982;DHT22;7065;50.880;5.502;2022-09-17T06:43:26;10.00;99.90
13982;DHT22;7065;50.880;5.502;2022-09-17T06:45:53;10.00;99.90
13982;DHT22;7065;50.880;5.502;2022-09-17T06:48:20;10.00;99.90
13982;DHT22;7065;50.880;5.502;2022-09-17T06:50:46;10.00;99.90
13982;DHT22;7065;50.880;5.502;2022-09-17T06:53:12;9.90;99.90
13982;DHT22;7065;50.880;5.502;2022-09-17T06:55:38;9.90;99.90
13982;DHT22;7065;50.880;5.502;2022-09-17T06:58:03;9.90;99.90
13982;DHT22;7065;50.880;5.502;2022-09-17T07:00:29;9.90;99.90
13982;DHT22;7065;50.880;5.502;2022-09-17T07:02:58;9.90;99.90
13982;DHT22;7065;50.880;5.502;2022-09-17T07:05:26;9.90;99.90
13982;DHT22;7065;50.880;5.502;2022-09-17T07:07:52;10.00;99.90
13982;DHT22;7065;50.880;5.502;2022-09-17T07:10:18;10.00;99.90
13982;DHT22;7065;50.880;5.502;2022-09-17T07:12:44;10.00;99.90
13982;DHT22;7065;50.880;5.502;2022-09-17T07:15:10;10.00;99.90
13982;DHT22;7065;50.880;5.502;2022-09-17T07:17:37;10.00;99.90
13982;DHT22;7065;50.880;5.502;2022-09-17T07:20:06;10.10;99.90
13982;DHT22;7065;50.880;5.502;2022-09-17T07:22:32;10.20;99.90
13982;DHT22;7065;50.880;5.502;2022-09-17T07:24:58;10.40;99.90
13982;DHT22;7065;50.880;5.502;2022-09-17T07:27:27;10.50;99.90
13982;DHT22;7065;50.880;5.502;2022-09-17T07:29:53;10.50;99.90
13982;DHT22;7065;50.880;5.502;2022-09-17T07:32:19;10.60;99.90
13982;DHT22;7065;50.880;5.502;2022-09-17T07:34:44;10.60;99.90
13982;DHT22;7065;50.880;5.502;2022-09-17T07:37:10;10.50;99.90
13982;DHT22;7065;50.880;5.502;2022-09-17T07:39:37;10.60;99.90
13982;DHT22;7065;50.880;5.502;2022-09-17T07:42:03;10.60;99.90
13982;DHT22;7065;50.880;5.502;2022-09-17T07:44:29;10.70;99.90
13982;DHT22;7065;50.880;5.502;2022-09-17T07:46:55;10.70;99.90
13982;DHT22;7065;50.880;5.502;2022-09-17T07:49:20;10.80;99.90
13982;DHT22;7065;50.880;5.502;2022-09-17T07:51:46;10.90;99.90
13982;DHT22;7065;50.880;5.502;2022-09-17T07:54:13;10.90;99.90
13982;DHT22;7065;50.880;5.502;2022-09-17T07:56:38;11.00;99.90
13982;DHT22;7065;50.880;5.502;2022-09-17T07:59:04;11.10;99.90
13982;DHT22;7065;50.880;5.502;2022-09-17T08:01:33;11.30;99.90
13982;DHT22;7065;50.880;5.502;2022-09-17T08:04:01;11.50;99.90
13982;DHT22;7065;50.880;5.502;2022-09-17T08:06:27;11.60;99.90
13982;DHT22;7065;50.880;5.502;2022-09-17T08:08:57;11.70;99.90
13982;DHT22;7065;50.880;5.502;2022-09-17T08:11:26;11.90;99.90
13982;DHT22;7065;50.880;5.502;2022-09-17T08:13:52;12.00;99.90
13982;DHT22;7065;50.880;5.502;2022-09-17T08:16:20;12.00;99.90
13982;DHT22;7065;50.880;5.502;2022-09-17T08:18:47;12.00;99.90
13982;DHT22;7065;50.880;5.502;2022-09-17T08:21:15;11.90;99.90
13982;DHT22;7065;50.880;5.502;2022-09-17T08:23:43;11.90;99.90
13982;DHT22;7065;50.880;5.502;2022-09-17T08:26:13;11.90;99.90
13982;DHT22;7065;50.880;5.502;2022-09-17T08:28:43;11.90;99.90
13982;DHT22;7065;50.880;5.502;2022-09-17T08:31:11;11.90;99.90
13982;DHT22;7065;50.880;5.502;2022-09-17T08:33:38;11.90;99.90
13982;DHT22;7065;50.880;5.502;2022-09-17T08:36:06;11.90;99.90
13982;DHT22;7065;50.880;5.502;2022-09-17T08:38:34;11.90;99.90
13982;DHT22;7065;50.880;5.502;2022-09-17T08:46:09;11.80;99.90
13982;DHT22;7065;50.880;5.502;2022-09-17T08:48:42;11.80;99.90
13982;DHT22;7065;50.880;5.502;2022-09-17T08:51:30;11.80;99.90
13982;DHT22;7065;50.880;5.502;2022-09-17T08:54:08;11.80;99.90
13982;DHT22;7065;50.880;5.502;2022-09-17T08:56:38;11.90;99.90
13982;DHT22;7065;50.880;5.502;2022-09-17T08:59:25;12.00;99.90
13982;DHT22;7065;50.880;5.502;2022-09-17T09:02:22;12.00;99.90
13982;DHT22;7065;50.880;5.502;2022-09-17T09:05:00;12.10;99.90
13982;DHT22;7065;50.880;5.502;2022-09-17T09:07:30;12.20;99.90
13982;DHT22;7065;50.880;5.502;2022-09-17T09:12:33;12.40;99.90
13982;DHT22;7065;50.880;5.502;2022-09-17T09:15:05;12.50;99.90
13982;DHT22;7065;50.880;5.502;2022-09-17T09:17:41;12.60;99.90
13982;DHT22;7065;50.880;5.502;2022-09-17T09:20:16;12.80;99.90
13982;DHT22;7065;50.880;5.502;2022-09-17T09:22:50;13.00;99.90
13982;DHT22;7065;50.880;5.502;2022-09-17T09:25:25;13.00;99.90
13982;DHT22;7065;50.880;5.502;2022-09-17T09:28:31;13.00;99.90
13982;DHT22;7065;50.880;5.502;2022-09-17T09:31:04;13.00;99.90
13982;DHT22;7065;50.880;5.502;2022-09-17T09:33:36;13.10;99.90
13982;DHT22;7065;50.880;5.502;2022-09-17T09:36:06;13.10;99.90
13982;DHT22;7065;50.880;5.502;2022-09-17T09:38:43;13.00;99.90
13982;DHT22;7065;50.880;5.502;2022-09-17T09:41:13;13.00;99.90
13982;DHT22;7065;50.880;5.502;2022-09-17T09:57:12;12.80;99.90
13982;DHT22;7065;50.880;5.502;2022-09-17T09:59:39;12.80;99.90
13982;DHT22;7065;50.880;5.502;2022-09-17T10:02:09;12.70;99.90
13982;DHT22;7065;50.880;5.502;2022-09-17T10:04:36;12.70;99.90
13982;DHT22;7065;50.880;5.502;2022-09-17T10:07:04;12.70;99.90
13982;DHT22;7065;50.880;5.502;2022-09-17T10:09:32;12.80;99.90
13982;DHT22;7065;50.880;5.502;2022-09-17T10:12:25;12.80;99.90
13982;DHT22;7065;50.880;5.502;2022-09-17T10:14:52;13.10;99.90
13982;DHT22;7065;50.880;5.502;2022-09-17T10:22:34;13.40;99.90
13982;DHT22;7065;50.880;5.502;2022-09-17T10:25:00;13.40;99.90
13982;DHT22;7065;50.880;5.502;2022-09-17T10:27:28;13.50;99.90
13982;DHT22;7065;50.880;5.502;2022-09-17T10:30:00;13.60;99.90
13982;DHT22;7065;50.880;5.502;2022-09-17T10:32:27;13.70;99.90
13982;DHT22;7065;50.880;5.502;2022-09-17T10:34:58;13.90;99.90
13982;DHT22;7065;50.880;5.502;2022-09-17T10:37:47;14.10;99.90
13982;DHT22;7065;50.880;5.502;2022-09-17T10:42:50;13.90;99.90
13982;DHT22;7065;50.880;5.502;2022-09-17T10:45:26;13.70;99.90
13982;DHT22;7065;50.880;5.502;2022-09-17T10:47:54;13.50;99.90
13982;DHT22;7065;50.880;5.502;2022-09-17T10:50:29;13.30;99.90
13982;DHT22;7065;50.880;5.502;2022-09-17T10:52:59;13.10;99.90
13982;DHT22;7065;50.880;5.502;2022-09-17T10:55:40;13.10;99.90
13982;DHT22;7065;50.880;5.502;2022-09-17T10:58:21;13.10;99.90
13982;DHT22;7065;50.880;5.502;2022-09-17T11:04:06;13.10;99.90
13982;DHT22;7065;50.880;5.502;2022-09-17T11:06:59;13.10;99.90
13982;DHT22;7065;50.880;5.502;2022-09-17T11:12:54;13.00;99.90
13982;DHT22;7065;50.880;5.502;2022-09-17T11:15:42;12.90;99.90
13982;DHT22;7065;50.880;5.502;2022-09-17T11:18:35;12.90;99.90
13982;DHT22;7065;50.880;5.502;2022-09-17T11:26:39;13.20;99.90
13982;DHT22;7065;50.880;5.502;2022-09-17T11:34:34;13.70;99.90
13982;DHT22;7065;50.880;5.502;2022-09-17T11:39:50;13.90;99.90
13982;DHT22;7065;50.880;5.502;2022-09-17T11:42:25;13.90;99.90
13982;DHT22;7065;50.880;5.502;2022-09-17T11:45:20;14.00;99.90
13982;DHT22;7065;50.880;5.502;2022-09-17T11:50:46;14.00;99.90
13982;DHT22;7065;50.880;5.502;2022-09-17T11:53:21;13.90;99.90
13982;DHT22;7065;50.880;5.502;2022-09-17T11:55:59;13.90;99.90
13982;DHT22;7065;50.880;5.502;2022-09-17T12:01:14;14.10;99.90
13982;DHT22;7065;50.880;5.502;2022-09-17T12:03:54;14.30;99.90
13982;DHT22;7065;50.880;5.502;2022-09-17T12:06:33;14.40;99.90
13982;DHT22;7065;50.880;5.502;2022-09-17T12:09:15;14.40;99.90
13982;DHT22;7065;50.880;5.502;2022-09-17T12:14:28;14.30;99.90
13982;DHT22;7065;50.880;5.502;2022-09-17T12:17:00;14.40;99.90
13982;DHT22;7065;50.880;5.502;2022-09-17T12:19:46;14.60;99.90
13982;DHT22;7065;50.880;5.502;2022-09-17T12:22:20;14.60;99.90
13982;DHT22;7065;50.880;5.502;2022-09-17T12:24:50;14.70;99.90
13982;DHT22;7065;50.880;5.502;2022-09-17T12:30:07;14.80;99.90
13982;DHT22;7065;50.880;5.502;2022-09-17T12:32:55;14.80;99.90
13982;DHT22;7065;50.880;5.502;2022-09-17T12:41:08;14.60;99.90
13982;DHT22;7065;50.880;5.502;2022-09-17T13:00:16;14.50;99.90
13982;DHT22;7065;50.880;5.502;2022-09-17T13:03:10;14.40;99.90
13982;DHT22;7065;50.880;5.502;2022-09-17T13:20:16;14.50;99.90
13982;DHT22;7065;50.880;5.502;2022-09-17T13:22:48;14.50;99.90
13982;DHT22;7065;50.880;5.502;2022-09-17T13:25:17;14.60;99.90
13982;DHT22;7065;50.880;5.502;2022-09-17T13:27:44;14.60;99.90
13982;DHT22;7065;50.880;5.502;2022-09-17T13:30:15;14.70;99.90
13982;DHT22;7065;50.880;5.502;2022-09-17T13:32:46;14.90;99.90
13982;DHT22;7065;50.880;5.502;2022-09-17T13:37:44;15.00;99.90
13982;DHT22;7065;50.880;5.502;2022-09-17T13:40:21;15.00;99.90
13982;DHT22;7065;50.880;5.502;2022-09-17T13:42:52;14.90;99.90
13982;DHT22;7065;50.880;5.502;2022-09-17T13:45:21;14.80;99.90
13982;DHT22;7065;50.880;5.502;2022-09-17T13:47:53;14.60;99.90
13982;DHT22;7065;50.880;5.502;2022-09-17T13:50:38;14.50;99.90
13982;DHT22;7065;50.880;5.502;2022-09-17T13:55:42;14.50;99.90
13982;DHT22;7065;50.880;5.502;2022-09-17T14:00:59;14.70;99.90
13982;DHT22;7065;50.880;5.502;2022-09-17T14:13:49;14.10;99.90
13982;DHT22;7065;50.880;5.502;2022-09-17T14:19:42;13.50;99.90
13982;DHT22;7065;50.880;5.502;2022-09-17T14:22:18;13.20;99.90
13982;DHT22;7065;50.880;5.502;2022-09-17T14:24:50;13.20;99.90
13982;DHT22;7065;50.880;5.502;2022-09-17T14:35:30;13.40;99.90
13982;DHT22;7065;50.880;5.502;2022-09-17T14:38:19;13.40;99.90
13982;DHT22;7065;50.880;5.502;2022-09-17T14:40:59;13.40;99.90
13982;DHT22;7065;50.880;5.502;2022-09-17T14:43:48;13.50;99.90
13982;DHT22;7065;50.880;5.502;2022-09-17T14:46:26;13.60;99.90
13982;DHT22;7065;50.880;5.502;2022-09-17T14:48:53;13.60;99.90
13982;DHT22;7065;50.880;5.502;2022-09-17T14:53:46;13.70;99.90
13982;DHT22;7065;50.880;5.502;2022-09-17T14:56:21;13.80;99.90
13982;DHT22;7065;50.880;5.502;2022-09-17T14:58:51;14.00;99.90
13982;DHT22;7065;50.880;5.502;2022-09-17T15:01:23;14.00;99.90
13982;DHT22;7065;50.880;5.502;2022-09-17T15:03:49;14.10;99.90
13982;DHT22;7065;50.880;5.502;2022-09-17T15:06:21;14.10;99.90
13982;DHT22;7065;50.880;5.502;2022-09-17T15:08:48;14.20;99.90
13982;DHT22;7065;50.880;5.502;2022-09-17T15:11:14;14.20;99.90
13982;DHT22;7065;50.880;5.502;2022-09-17T15:13:51;14.30;99.90
13982;DHT22;7065;50.880;5.502;2022-09-17T15:16:23;14.30;99.90
13982;DHT22;7065;50.880;5.502;2022-09-17T15:18:59;14.40;99.90
13982;DHT22;7065;50.880;5.502;2022-09-17T15:21:42;14.50;99.90
13982;DHT22;7065;50.880;5.502;2022-09-17T15:26:55;14.70;99.90
13982;DHT22;7065;50.880;5.502;2022-09-17T15:29:25;14.60;99.90
13982;DHT22;7065;50.880;5.502;2022-09-17T15:31:53;14.60;99.90
13982;DHT22;7065;50.880;5.502;2022-09-17T15:34:19;14.60;99.90
13982;DHT22;7065;50.880;5.502;2022-09-17T15:37:06;14.50;99.90
13982;DHT22;7065;50.880;5.502;2022-09-17T15:39:40;14.40;99.90
13982;DHT22;7065;50.880;5.502;2022-09-17T15:42:16;14.30;99.90
13982;DHT22;7065;50.880;5.502;2022-09-17T15:44:43;14.30;99.90
13982;DHT22;7065;50.880;5.502;2022-09-17T15:47:43;14.40;99.90
13982;DHT22;7065;50.880;5.502;2022-09-17T15:50:35;14.60;99.90
13982;DHT22;7065;50.880;5.502;2022-09-17T15:53:21;14.60;99.90
13982;DHT22;7065;50.880;5.502;2022-09-17T15:56:17;14.70;99.90
13982;DHT22;7065;50.880;5.502;2022-09-17T16:08:42;14.30;99.90
13982;DHT22;7065;50.880;5.502;2022-09-17T16:11:08;14.20;99.90
13982;DHT22;7065;50.880;5.502;2022-09-17T16:13:34;14.10;99.90
13982;DHT22;7065;50.880;5.502;2022-09-17T16:16:00;14.00;99.90
13982;DHT22;7065;50.880;5.502;2022-09-17T16:18:26;13.90;99.90
13982;DHT22;7065;50.880;5.502;2022-09-17T16:20:52;13.90;99.90
13982;DHT22;7065;50.880;5.502;2022-09-17T16:23:17;13.90;99.90
13982;DHT22;7065;50.880;5.502;2022-09-17T16:25:43;13.90;99.90
13982;DHT22;7065;50.880;5.502;2022-09-17T16:28:15;13.90;99.90
13982;DHT22;7065;50.880;5.502;2022-09-17T16:30:43;13.90;99.90
13982;DHT22;7065;50.880;5.502;2022-09-17T16:33:11;13.90;99.90
13982;DHT22;7065;50.880;5.502;2022-09-17T16:35:37;13.90;99.90
13982;DHT22;7065;50.880;5.502;2022-09-17T16:38:06;14.00;99.90
13982;DHT22;7065;50.880;5.502;2022-09-17T16:40:32;13.90;99.90
13982;DHT22;7065;50.880;5.502;2022-09-17T16:43:02;13.90;99.90
13982;DHT22;7065;50.880;5.502;2022-09-17T16:45:29;13.80;99.90
13982;DHT22;7065;50.880;5.502;2022-09-17T16:47:55;13.80;99.90
13982;DHT22;7065;50.880;5.502;2022-09-17T16:50:21;13.80;99.90
13982;DHT22;7065;50.880;5.502;2022-09-17T16:52:47;13.70;99.90
13982;DHT22;7065;50.880;5.502;2022-09-17T16:55:14;13.70;99.90
13982;DHT22;7065;50.880;5.502;2022-09-17T16:57:40;13.70;99.90
13982;DHT22;7065;50.880;5.502;2022-09-17T17:00:08;13.70;99.90
13982;DHT22;7065;50.880;5.502;2022-09-17T17:02:39;13.70;99.90
13982;DHT22;7065;50.880;5.502;2022-09-17T17:05:05;13.70;99.90
13982;DHT22;7065;50.880;5.502;2022-09-17T17:07:30;13.70;99.90
13982;DHT22;7065;50.880;5.502;2022-09-17T17:09:57;13.70;99.90
13982;DHT22;7065;50.880;5.502;2022-09-17T17:12:26;13.70;99.90
13982;DHT22;7065;50.880;5.502;2022-09-17T17:14:53;13.70;99.90
13982;DHT22;7065;50.880;5.502;2022-09-17T17:17:19;13.70;99.90
13982;DHT22;7065;50.880;5.502;2022-09-17T17:19:45;13.60;99.90
13982;DHT22;7065;50.880;5.502;2022-09-17T17:22:12;13.60;99.90
13982;DHT22;7065;50.880;5.502;2022-09-17T17:24:38;13.50;99.90
13982;DHT22;7065;50.880;5.502;2022-09-17T17:27:04;13.40;99.90
13982;DHT22;7065;50.880;5.502;2022-09-17T17:29:30;13.30;99.90
13982;DHT22;7065;50.880;5.502;2022-09-17T17:31:56;13.20;99.90
13982;DHT22;7065;50.880;5.502;2022-09-17T17:34:21;13.20;99.90
13982;DHT22;7065;50.880;5.502;2022-09-17T17:36:48;13.10;99.90
13982;DHT22;7065;50.880;5.502;2022-09-17T17:39:14;13.00;99.90
13982;DHT22;7065;50.880;5.502;2022-09-17T17:41:40;12.90;99.90
13982;DHT22;7065;50.880;5.502;2022-09-17T17:44:07;12.80;99.90
13982;DHT22;7065;50.880;5.502;2022-09-17T17:46:33;12.80;99.90
13982;DHT22;7065;50.880;5.502;2022-09-17T17:48:58;12.70;99.90
13982;DHT22;7065;50.880;5.502;2022-09-17T17:51:24;12.70;99.90
13982;DHT22;7065;50.880;5.502;2022-09-17T17:53:51;12.70;99.90
13982;DHT22;7065;50.880;5.502;2022-09-17T17:56:17;12.60;99.90
13982;DHT22;7065;50.880;5.502;2022-09-17T17:58:44;12.60;99.90
13982;DHT22;7065;50.880;5.502;2022-09-17T18:01:14;12.50;99.90
13982;DHT22;7065;50.880;5.502;2022-09-17T18:03:41;12.50;99.90
13982;DHT22;7065;50.880;5.502;2022-09-17T18:06:06;12.40;99.90
13982;DHT22;7065;50.880;5.502;2022-09-17T18:08:37;12.40;99.90
13982;DHT22;7065;50.880;5.502;2022-09-17T18:11:04;12.40;99.90
13982;DHT22;7065;50.880;5.502;2022-09-17T18:13:36;12.40;99.90
13982;DHT22;7065;50.880;5.502;2022-09-17T18:16:04;12.40;99.90
13982;DHT22;7065;50.880;5.502;2022-09-17T18:18:35;12.40;99.90
13982;DHT22;7065;50.880;5.502;2022-09-17T18:21:04;12.30;99.90
13982;DHT22;7065;50.880;5.502;2022-09-17T18:23:35;12.30;99.90
13982;DHT22;7065;50.880;5.502;2022-09-17T18:26:02;12.30;99.90
13982;DHT22;7065;50.880;5.502;2022-09-17T18:28:30;12.30;99.90
13982;DHT22;7065;50.880;5.502;2022-09-17T18:31:02;12.30;99.90
13982;DHT22;7065;50.880;5.502;2022-09-17T18:33:28;12.20;99.90
13982;DHT22;7065;50.880;5.502;2022-09-17T18:35:53;12.20;99.90
13982;DHT22;7065;50.880;5.502;2022-09-17T18:38:24;12.20;99.90
13982;DHT22;7065;50.880;5.502;2022-09-17T18:40:50;12.20;99.90
13982;DHT22;7065;50.880;5.502;2022-09-17T18:43:16;12.20;99.90
13982;DHT22;7065;50.880;5.502;2022-09-17T18:45:42;12.10;99.90
13982;DHT22;7065;50.880;5.502;2022-09-17T18:48:08;12.00;99.90
13982;DHT22;7065;50.880;5.502;2022-09-17T18:50:34;12.00;99.90
13982;DHT22;7065;50.880;5.502;2022-09-17T18:53:00;12.00;99.90
13982;DHT22;7065;50.880;5.502;2022-09-17T18:55:27;11.90;99.90
13982;DHT22;7065;50.880;5.502;2022-09-17T18:57:56;11.90;99.90
13982;DHT22;7065;50.880;5.502;2022-09-17T19:00:21;11.80;99.90
13982;DHT22;7065;50.880;5.502;2022-09-17T19:02:48;11.80;99.90
13982;DHT22;7065;50.880;5.502;2022-09-17T19:05:17;11.70;99.90
13982;DHT22;7065;50.880;5.502;2022-09-17T19:07:46;11.70;99.90
13982;DHT22;7065;50.880;5.502;2022-09-17T19:10:13;11.70;99.90
13982;DHT22;7065;50.880;5.502;2022-09-17T19:12:39;11.70;99.90